sensor_id;sensor_type;location;lat;lon;timestamp;temperature;humidity
11003;DHT22;5554;55.796;13.090;2022-09-14T00:03:39;14.30;99.90
11003;DHT22;5554;55.796;13.090;2022-09-14T00:06:22;14.30;99.90
11003;DHT22;5554;55.796;13.090;2022-09-14T00:08:51;14.30;99.90
11003;DHT22;5554;55.796;13.090;2022-09-14T00:11:26;14.30;99.90
11003;DHT22;5554;55.796;13.090;2022-09-14T00:13:58;14.30;99.90
11003;DHT22;5554;55.796;13.090;2022-09-14T00:16:28;14.40;99.90
11003;DHT22;5554;55.796;13.090;2022-09-14T00:18:57;14.30;99.90
11003;DHT22;5554;55.796;13.090;2022-09-14T00:21:26;14.30;99.90
11003;DHT22;5554;55.796;13.090;2022-09-14T00:23:53;14.40;99.90
11003;DHT22;5554;55.796;13.090;2022-09-14T00:26:22;14.40;99.90
11003;DHT22;5554;55.796;13.090;2022-09-14T00:28:53;14.30;99.90
11003;DHT22;5554;55.796;13.090;2022-09-14T00:41:47;14.30;99.90
11003;DHT22;5554;55.796;13.090;2022-09-14T00:45:12;14.40;99.90
11003;DHT22;5554;55.796;13.090;2022-09-14T00:51:18;14.40;99.90
11003;DHT22;5554;55.796;13.090;2022-09-14T00:54:00;14.40;99.90
11003;DHT22;5554;55.796;13.090;2022-09-14T00:56:28;14.40;99.90
11003;DHT22;5554;55.796;13.090;2022-09-14T00:58:58;14.50;99.90
11003;DHT22;5554;55.796;13.090;2022-09-14T01:01:27;14.40;99.90
11003;DHT22;5554;55.796;13.090;2022-09-14T01:03:55;14.40;99.90
11003;DHT22;5554;55.796;13.090;2022-09-14T01:06:54;14.40;99.90
11003;DHT22;5554;55.796;13.090;2022-09-14T01:09:28;14.40;99.90
11003;DHT22;5554;55.796;13.090;2022-09-14T01:12:27;14.40;99.90
11003;DHT22;5554;55.796;13.090;2022-09-14T01:15:04;14.50;99.90
11003;DHT22;5554;55.796;13.090;2022-09-14T01:17:39;14.40;99.90
11003;DHT22;5554;55.796;13.090;2022-09-14T01:20:29;14.50;99.90
11003;DHT22;5554;55.796;13.090;2022-09-14T01:50:21;14.40;99.90
11003;DHT22;5554;55.796;13.090;2022-09-14T01:56:23;14.50;99.90
11003;DHT22;5554;55.796;13.090;2022-09-14T01:59:04;14.40;99.90
11003;DHT22;5554;55.796;13.090;2022-09-14T02:01:36;14.50;99.90
11003;DHT22;5554;55.796;13.090;2022-09-14T02:04:07;14.50;99.90
11003;DHT22;5554;55.796;13.090;2022-09-14T02:06:39;14.50;99.90
11003;DHT22;5554;55.796;13.090;2022-09-14T02:09:11;14.40;99.90
11003;DHT22;5554;55.796;13.090;2022-09-14T02:11:40;14.40;99.90
11003;DHT22;5554;55.796;13.090;2022-09-14T02:14:07;14.50;99.90
11003;DHT22;5554;55.796;13.090;2022-09-14T02:16:35;14.50;99.90
11003;DHT22;5554;55.796;13.090;2022-09-14T02:19:04;14.40;99.90
11003;DHT22;5554;55.796;13.090;2022-09-14T02:28:25;14.50;99.90
11003;DHT22;5554;55.796;13.090;2022-09-14T02:30:59;14.40;99.90
11003;DHT22;5554;55.796;13.090;2022-09-14T02:33:37;14.40;99.90
11003;DHT22;5554;55.796;13.090;2022-09-14T02:36:09;14.40;99.90
11003;DHT22;5554;55.796;13.090;2022-09-14T02:38:49;14.40;99.90
11003;DHT22;5554;55.796;13.090;2022-09-14T02:41:25;14.40;99.90
11003;DHT22;5554;55.796;13.090;2022-09-14T02:44:03;14.40;99.90
11003;DHT22;5554;55.796;13.090;2022-09-14T02:46:36;14.40;99.90
11003;DHT22;5554;55.796;13.090;2022-09-14T02:49:09;14.40;99.90
11003;DHT22;5554;55.796;13.090;2022-09-14T02:51:59;14.40;99.90
11003;DHT22;5554;55.796;13.090;2022-09-14T02:54:31;14.40;99.90
11003;DHT22;5554;55.796;13.090;2022-09-14T02:57:01;14.40;99.90
11003;DHT22;5554;55.796;13.090;2022-09-14T02:59:36;14.40;99.90
11003;DHT22;5554;55.796;13.090;2022-09-14T03:02:03;14.40;99.90
11003;DHT22;5554;55.796;13.090;2022-09-14T03:04:30;14.40;99.90
11003;DHT22;5554;55.796;13.090;2022-09-14T03:06:57;14.40;99.90
11003;DHT22;5554;55.796;13.090;2022-09-14T03:09:24;14.40;99.90
11003;DHT22;5554;55.796;13.090;2022-09-14T03:11:51;14.40;99.90
11003;DHT22;5554;55.796;13.090;2022-09-14T03:14:18;14.30;99.90
11003;DHT22;5554;55.796;13.090;2022-09-14T03:16:47;14.30;99.90
11003;DHT22;5554;55.796;13.090;2022-09-14T03:19:14;14.20;99.90
11003;DHT22;5554;55.796;13.090;2022-09-14T03:21:41;14.20;99.90
11003;DHT22;5554;55.796;13.090;2022-09-14T03:24:08;14.30;99.90
11003;DHT22;5554;55.796;13.090;2022-09-14T03:26:35;14.20;99.90
11003;DHT22;5554;55.796;13.090;2022-09-14T03:29:07;14.20;99.90
11003;DHT22;5554;55.796;13.090;2022-09-14T03:31:34;14.30;99.90
11003;DHT22;5554;55.796;13.090;2022-09-14T03:34:09;14.20;99.90
11003;DHT22;5554;55.796;13.090;2022-09-14T03:36:36;14.20;99.90
11003;DHT22;5554;55.796;13.090;2022-09-14T03:39:03;14.20;99.90
11003;DHT22;5554;55.796;13.090;2022-09-14T03:41:30;14.20;99.90
11003;DHT22;5554;55.796;13.090;2022-09-14T03:56:52;14.00;99.90
11003;DHT22;5554;55.796;13.090;2022-09-14T03:59:19;14.00;99.90
11003;DHT22;5554;55.796;13.090;2022-09-14T04:01:46;14.00;99.90
11003;DHT22;5554;55.796;13.090;2022-09-14T04:04:15;14.00;99.90
11003;DHT22;5554;55.796;13.090;2022-09-14T04:06:42;14.00;99.90
11003;DHT22;5554;55.796;13.090;2022-09-14T04:13:21;14.10;99.90
11003;DHT22;5554;55.796;13.090;2022-09-14T04:16:04;14.10;99.90
11003;DHT22;5554;55.796;13.090;2022-09-14T04:18:37;14.10;99.90
11003;DHT22;5554;55.796;13.090;2022-09-14T04:21:09;14.10;99.90
11003;DHT22;5554;55.796;13.090;2022-09-14T04:23:52;14.10;99.90
11003;DHT22;5554;55.796;13.090;2022-09-14T04:26:21;14.10;99.90
11003;DHT22;5554;55.796;13.090;2022-09-14T04:35:35;14.10;99.90
11003;DHT22;5554;55.796;13.090;2022-09-14T04:38:03;14.10;99.90
11003;DHT22;5554;55.796;13.090;2022-09-14T04:40:44;14.10;99.90
11003;DHT22;5554;55.796;13.090;2022-09-14T04:43:19;14.10;99.90
11003;DHT22;5554;55.796;13.090;2022-09-14T04:47:05;14.10;99.90
11003;DHT22;5554;55.796;13.090;2022-09-14T04:56:25;14.20;99.90
11003;DHT22;5554;55.796;13.090;2022-09-14T05:05:43;14.10;99.90
11003;DHT22;5554;55.796;13.090;2022-09-14T05:08:10;14.20;99.90
11003;DHT22;5554;55.796;13.090;2022-09-14T05:10:37;14.20;99.90
11003;DHT22;5554;55.796;13.090;2022-09-14T05:13:12;14.20;99.90
11003;DHT22;5554;55.796;13.090;2022-09-14T05:15:40;14.20;99.90
11003;DHT22;5554;55.796;13.090;2022-09-14T05:18:08;14.30;99.90
11003;DHT22;5554;55.796;13.090;2022-09-14T05:20:44;14.20;99.90
11003;DHT22;5554;55.796;13.090;2022-09-14T05:23:11;14.20;99.90
11003;DHT22;5554;55.796;13.090;2022-09-14T05:25:38;14.20;99.90
11003;DHT22;5554;55.796;13.090;2022-09-14T05:31:04;14.20;99.90
11003;DHT22;5554;55.796;13.090;2022-09-14T05:33:31;14.20;99.90
11003;DHT22;5554;55.796;13.090;2022-09-14T05:36:00;14.30;99.90
11003;DHT22;5554;55.796;13.090;2022-09-14T05:38:28;14.30;99.90
11003;DHT22;5554;55.796;13.090;2022-09-14T05:40:55;14.20;99.90
11003;DHT22;5554;55.796;13.090;2022-09-14T05:43:29;14.20;99.90
11003;DHT22;5554;55.796;13.090;2022-09-14T05:46:00;14.30;99.90
11003;DHT22;5554;55.796;13.090;2022-09-14T05:48:35;14.30;99.90
11003;DHT22;5554;55.796;13.090;2022-09-14T05:54:05;14.30;99.90
11003;DHT22;5554;55.796;13.090;2022-09-14T06:03:40;14.40;99.90
11003;DHT22;5554;55.796;13.090;2022-09-14T06:06:08;14.50;99.90
11003;DHT22;5554;55.796;13.090;2022-09-14T06:08:36;14.50;99.90
11003;DHT22;5554;55.796;13.090;2022-09-14T06:11:03;14.50;99.90
11003;DHT22;5554;55.796;13.090;2022-09-14T06:13:31;14.50;99.90
11003;DHT22;5554;55.796;13.090;2022-09-14T06:16:03;14.50;99.90
11003;DHT22;5554;55.796;13.090;2022-09-14T06:18:34;14.50;99.90
11003;DHT22;5554;55.796;13.090;2022-09-14T06:21:03;14.60;99.90
11003;DHT22;5554;55.796;13.090;2022-09-14T06:23:32;14.50;99.90
11003;DHT22;5554;55.796;13.090;2022-09-14T06:26:08;14.50;99.90
11003;DHT22;5554;55.796;13.090;2022-09-14T06:28:55;14.50;99.90
11003;DHT22;5554;55.796;13.090;2022-09-14T06:31:22;14.50;99.90
11003;DHT22;5554;55.796;13.090;2022-09-14T06:33:52;14.60;99.90
11003;DHT22;5554;55.796;13.090;2022-09-14T06:36:22;14.70;99.90
11003;DHT22;5554;55.796;13.090;2022-09-14T06:38:50;14.70;99.90
11003;DHT22;5554;55.796;13.090;2022-09-14T06:41:22;14.70;99.90
11003;DHT22;5554;55.796;13.090;2022-09-14T06:43:51;14.70;99.90
11003;DHT22;5554;55.796;13.090;2022-09-14T06:46:22;14.70;99.90
11003;DHT22;5554;55.796;13.090;2022-09-14T06:48:53;14.70;99.90
11003;DHT22;5554;55.796;13.090;2022-09-14T06:51:22;14.70;99.90
11003;DHT22;5554;55.796;13.090;2022-09-14T06:53:50;14.70;99.90
11003;DHT22;5554;55.796;13.090;2022-09-14T06:56:19;14.70;99.90
11003;DHT22;5554;55.796;13.090;2022-09-14T06:58:48;14.70;99.90
11003;DHT22;5554;55.796;13.090;2022-09-14T07:01:18;14.80;99.90
11003;DHT22;5554;55.796;13.090;2022-09-14T07:03:46;14.80;99.90
11003;DHT22;5554;55.796;13.090;2022-09-14T07:06:31;14.80;99.90
11003;DHT22;5554;55.796;13.090;2022-09-14T07:09:03;14.80;99.90
11003;DHT22;5554;55.796;13.090;2022-09-14T07:11:39;14.80;99.90
11003;DHT22;5554;55.796;13.090;2022-09-14T07:14:10;14.80;99.90
11003;DHT22;5554;55.796;13.090;2022-09-14T07:16:38;14.70;99.90
11003;DHT22;5554;55.796;13.090;2022-09-14T07:19:19;14.70;99.90
11003;DHT22;5554;55.796;13.090;2022-09-14T07:22:07;14.70;99.90
11003;DHT22;5554;55.796;13.090;2022-09-14T07:24:34;14.80;99.90
11003;DHT22;5554;55.796;13.090;2022-09-14T07:27:01;14.80;99.90
11003;DHT22;5554;55.796;13.090;2022-09-14T07:29:28;14.80;99.90
11003;DHT22;5554;55.796;13.090;2022-09-14T07:31:58;14.90;99.90
11003;DHT22;5554;55.796;13.090;2022-09-14T07:34:26;14.90;99.90
11003;DHT22;5554;55.796;13.090;2022-09-14T07:36:56;15.00;99.90
11003;DHT22;5554;55.796;13.090;2022-09-14T07:39:24;14.90;99.90
11003;DHT22;5554;55.796;13.090;2022-09-14T07:41:51;14.90;99.90
11003;DHT22;5554;55.796;13.090;2022-09-14T07:44:18;15.00;99.90
11003;DHT22;5554;55.796;13.090;2022-09-14T07:46:56;14.90;99.90
11003;DHT22;5554;55.796;13.090;2022-09-14T07:49:23;14.90;99.90
11003;DHT22;5554;55.796;13.090;2022-09-14T07:52:04;14.90;99.90
11003;DHT22;5554;55.796;13.090;2022-09-14T07:54:32;14.90;99.90
11003;DHT22;5554;55.796;13.090;2022-09-14T07:57:00;14.80;99.90
11003;DHT22;5554;55.796;13.090;2022-09-14T08:00:17;15.00;99.90
11003;DHT22;5554;55.796;13.090;2022-09-14T08:02:51;14.90;99.90
11003;DHT22;5554;55.796;13.090;2022-09-14T08:05:45;15.00;99.90
11003;DHT22;5554;55.796;13.090;2022-09-14T08:08:12;14.90;99.90
11003;DHT22;5554;55.796;13.090;2022-09-14T08:10:49;14.90;99.90
11003;DHT22;5554;55.796;13.090;2022-09-14T08:13:16;14.90;99.90
11003;DHT22;5554;55.796;13.090;2022-09-14T08:15:43;15.00;99.90
11003;DHT22;5554;55.796;13.090;2022-09-14T08:18:10;15.10;99.90
11003;DHT22;5554;55.796;13.090;2022-09-14T08:20:37;15.10;99.90
11003;DHT22;5554;55.796;13.090;2022-09-14T08:23:16;15.10;99.90
11003;DHT22;5554;55.796;13.090;2022-09-14T08:26:04;15.10;99.90
11003;DHT22;5554;55.796;13.090;2022-09-14T08:28:35;15.20;99.90
11003;DHT22;5554;55.796;13.090;2022-09-14T08:31:37;15.30;99.90
11003;DHT22;5554;55.796;13.090;2022-09-14T08:34:11;15.40;99.90
11003;DHT22;5554;55.796;13.090;2022-09-14T08:36:44;15.50;99.90
11003;DHT22;5554;55.796;13.090;2022-09-14T08:39:30;15.50;99.90
11003;DHT22;5554;55.796;13.090;2022-09-14T08:45:45;15.60;99.90
11003;DHT22;5554;55.796;13.090;2022-09-14T08:48:28;15.70;99.90
11003;DHT22;5554;55.796;13.090;2022-09-14T08:51:16;15.80;99.90
11003;DHT22;5554;55.796;13.090;2022-09-14T09:00:51;15.90;99.90
11003;DHT22;5554;55.796;13.090;2022-09-14T09:06:28;15.80;99.90
11003;DHT22;5554;55.796;13.090;2022-09-14T09:09:10;15.90;99.90
11003;DHT22;5554;55.796;13.090;2022-09-14T09:11:45;15.80;99.90
11003;DHT22;5554;55.796;13.090;2022-09-14T09:14:17;15.80;99.90
11003;DHT22;5554;55.796;13.090;2022-09-14T09:23:54;15.80;99.90
11003;DHT22;5554;55.796;13.090;2022-09-14T09:26:29;15.90;99.90
11003;DHT22;5554;55.796;13.090;2022-09-14T09:39:00;15.70;99.90
11003;DHT22;5554;55.796;13.090;2022-09-14T09:41:30;15.70;99.90
11003;DHT22;5554;55.796;13.090;2022-09-14T09:44:02;15.90;99.90
11003;DHT22;5554;55.796;13.090;2022-09-14T09:46:33;16.30;99.90
11003;DHT22;5554;55.796;13.090;2022-09-14T09:49:03;16.60;99.90
11003;DHT22;5554;55.796;13.090;2022-09-14T09:51:32;16.80;99.90
11003;DHT22;5554;55.796;13.090;2022-09-14T09:54:06;17.00;99.90
11003;DHT22;5554;55.796;13.090;2022-09-14T09:56:37;17.30;99.90
11003;DHT22;5554;55.796;13.090;2022-09-14T09:59:21;17.90;99.90
11003;DHT22;5554;55.796;13.090;2022-09-14T10:01:48;18.20;99.90
11003;DHT22;5554;55.796;13.090;2022-09-14T10:04:18;17.70;99.90
11003;DHT22;5554;55.796;13.090;2022-09-14T10:06:47;18.10;99.90
11003;DHT22;5554;55.796;13.090;2022-09-14T10:09:17;17.70;99.90
11003;DHT22;5554;55.796;13.090;2022-09-14T10:11:45;17.50;99.90
11003;DHT22;5554;55.796;13.090;2022-09-14T10:14:22;17.60;99.90
11003;DHT22;5554;55.796;13.090;2022-09-14T10:16:52;17.50;99.90
11003;DHT22;5554;55.796;13.090;2022-09-14T10:19:21;17.30;99.90
11003;DHT22;5554;55.796;13.090;2022-09-14T10:22:17;17.30;99.90
11003;DHT22;5554;55.796;13.090;2022-09-14T10:24:57;17.80;99.90
11003;DHT22;5554;55.796;13.090;2022-09-14T10:27:36;18.30;1.00
11003;DHT22;5554;55.796;13.090;2022-09-14T10:30:08;18.70;35.00
11003;DHT22;5554;55.796;13.090;2022-09-14T10:32:38;18.00;1.00
11003;DHT22;5554;55.796;13.090;2022-09-14T10:35:11;17.30;99.90
11003;DHT22;5554;55.796;13.090;2022-09-14T10:37:48;16.90;99.90
11003;DHT22;5554;55.796;13.090;2022-09-14T10:40:59;16.70;99.90
11003;DHT22;5554;55.796;13.090;2022-09-14T10:44:24;16.70;99.90
11003;DHT22;5554;55.796;13.090;2022-09-14T10:50:52;17.00;56.90
11003;DHT22;5554;55.796;13.090;2022-09-14T10:53:39;17.40;3.10
11003;DHT22;5554;55.796;13.090;2022-09-14T10:56:14;18.90;1.00
11003;DHT22;5554;55.796;13.090;2022-09-14T11:02:01;19.20;99.90
11003;DHT22;5554;55.796;13.090;2022-09-14T11:05:03;17.90;99.90
11003;DHT22;5554;55.796;13.090;2022-09-14T11:07:36;17.50;1.00
11003;DHT22;5554;55.796;13.090;2022-09-14T11:10:18;17.70;1.00
11003;DHT22;5554;55.796;13.090;2022-09-14T11:13:00;17.50;99.90
11003;DHT22;5554;55.796;13.090;2022-09-14T11:15:43;17.10;99.90
11003;DHT22;5554;55.796;13.090;2022-09-14T11:18:22;17.20;99.90
11003;DHT22;5554;55.796;13.090;2022-09-14T11:21:00;17.40;99.90
11003;DHT22;5554;55.796;13.090;2022-09-14T11:23:38;17.60;99.90
11003;DHT22;5554;55.796;13.090;2022-09-14T11:26:21;17.30;1.00
11003;DHT22;5554;55.796;13.090;2022-09-14T11:42:24;17.40;1.00
11003;DHT22;5554;55.796;13.090;2022-09-14T11:45:02;17.20;1.00
11003;DHT22;5554;55.796;13.090;2022-09-14T11:47:36;17.40;1.00
11003;DHT22;5554;55.796;13.090;2022-09-14T11:50:14;18.50;1.00
11003;DHT22;5554;55.796;13.090;2022-09-14T11:52:43;18.30;99.90
11003;DHT22;5554;55.796;13.090;2022-09-14T11:55:15;17.90;99.90
11003;DHT22;5554;55.796;13.090;2022-09-14T11:57:45;17.50;1.00
11003;DHT22;5554;55.796;13.090;2022-09-14T12:08:12;17.50;1.00
11003;DHT22;5554;55.796;13.090;2022-09-14T12:13:37;17.30;1.00
11003;DHT22;5554;55.796;13.090;2022-09-14T12:16:05;17.50;1.00
11003;DHT22;5554;55.796;13.090;2022-09-14T12:18:35;17.80;1.00
11003;DHT22;5554;55.796;13.090;2022-09-14T12:21:05;17.60;99.90
11003;DHT22;5554;55.796;13.090;2022-09-14T12:23:45;17.80;99.90
11003;DHT22;5554;55.796;13.090;2022-09-14T12:26:37;17.80;99.90
11003;DHT22;5554;55.796;13.090;2022-09-14T12:29:30;17.90;99.90
11003;DHT22;5554;55.796;13.090;2022-09-14T12:32:00;17.70;99.90
11003;DHT22;5554;55.796;13.090;2022-09-14T12:34:28;18.50;99.90
11003;DHT22;5554;55.796;13.090;2022-09-14T12:37:28;18.60;66.80
11003;DHT22;5554;55.796;13.090;2022-09-14T12:40:32;18.10;1.00
11003;DHT22;5554;55.796;13.090;2022-09-14T12:46:32;17.50;99.90
11003;DHT22;5554;55.796;13.090;2022-09-14T12:49:01;17.80;99.90
11003;DHT22;5554;55.796;13.090;2022-09-14T12:51:39;17.70;99.90
11003;DHT22;5554;55.796;13.090;2022-09-14T12:54:21;17.70;99.90
11003;DHT22;5554;55.796;13.090;2022-09-14T12:57:22;17.90;99.90
11003;DHT22;5554;55.796;13.090;2022-09-14T12:59:59;17.90;1.00
11003;DHT22;5554;55.796;13.090;2022-09-14T13:03:08;17.60;1.00
11003;DHT22;5554;55.796;13.090;2022-09-14T13:05:45;17.60;1.00
11003;DHT22;5554;55.796;13.090;2022-09-14T13:09:19;17.50;1.00
11003;DHT22;5554;55.796;13.090;2022-09-14T13:14:47;17.30;1.00
11003;DHT22;5554;55.796;13.090;2022-09-14T13:17:17;17.30;1.00
11003;DHT22;5554;55.796;13.090;2022-09-14T13:19:53;17.40;1.00
11003;DHT22;5554;55.796;13.090;2022-09-14T13:22:23;17.30;1.00
11003;DHT22;5554;55.796;13.090;2022-09-14T13:24:52;17.30;1.00
11003;DHT22;5554;55.796;13.090;2022-09-14T13:27:24;17.10;1.00
11003;DHT22;5554;55.796;13.090;2022-09-14T13:30:00;17.10;1.00
11003;DHT22;5554;55.796;13.090;2022-09-14T13:32:34;17.00;1.00
11003;DHT22;5554;55.796;13.090;2022-09-14T13:35:06;17.00;1.00
11003;DHT22;5554;55.796;13.090;2022-09-14T13:41:09;16.70;1.00
11003;DHT22;5554;55.796;13.090;2022-09-14T13:44:18;16.60;1.00
11003;DHT22;5554;55.796;13.090;2022-09-14T13:47:43;16.50;1.00
11003;DHT22;5554;55.796;13.090;2022-09-14T14:00:18;16.40;1.00
11003;DHT22;5554;55.796;13.090;2022-09-14T14:02:52;16.50;1.00
11003;DHT22;5554;55.796;13.090;2022-09-14T14:05:22;16.50;26.60
11003;DHT22;5554;55.796;13.090;2022-09-14T14:07:57;16.40;20.70
11003;DHT22;5554;55.796;13.090;2022-09-14T14:10:35;16.40;57.60
11003;DHT22;5554;55.796;13.090;2022-09-14T14:13:09;16.50;99.90
11003;DHT22;5554;55.796;13.090;2022-09-14T14:18:54;16.60;99.90
11003;DHT22;5554;55.796;13.090;2022-09-14T14:21:30;16.60;99.90
11003;DHT22;5554;55.796;13.090;2022-09-14T14:27:27;16.50;65.30
11003;DHT22;5554;55.796;13.090;2022-09-14T14:30:16;16.60;61.10
11003;DHT22;5554;55.796;13.090;2022-09-14T14:32:48;16.50;41.90
11003;DHT22;5554;55.796;13.090;2022-09-14T14:35:37;16.60;49.20
11003;DHT22;5554;55.796;13.090;2022-09-14T14:38:04;16.60;73.40
11003;DHT22;5554;55.796;13.090;2022-09-14T14:40:31;16.60;99.90
11003;DHT22;5554;55.796;13.090;2022-09-14T14:42:59;16.60;99.90
11003;DHT22;5554;55.796;13.090;2022-09-14T14:45:28;16.60;99.90
11003;DHT22;5554;55.796;13.090;2022-09-14T14:47:56;16.60;99.90
11003;DHT22;5554;55.796;13.090;2022-09-14T14:50:28;16.60;99.90
11003;DHT22;5554;55.796;13.090;2022-09-14T14:52:58;16.60;99.90
11003;DHT22;5554;55.796;13.090;2022-09-14T14:55:27;16.50;99.90
11003;DHT22;5554;55.796;13.090;2022-09-14T14:58:22;16.40;99.90
11003;DHT22;5554;55.796;13.090;2022-09-14T15:00:58;16.40;99.90
11003;DHT22;5554;55.796;13.090;2022-09-14T15:03:36;16.40;99.90
11003;DHT22;5554;55.796;13.090;2022-09-14T15:06:12;16.50;99.90
11003;DHT22;5554;55.796;13.090;2022-09-14T15:08:41;16.60;99.90
11003;DHT22;5554;55.796;13.090;2022-09-14T15:11:14;16.60;99.90
11003;DHT22;5554;55.796;13.090;2022-09-14T15:13:42;16.60;99.90
11003;DHT22;5554;55.796;13.090;2022-09-14T15:16:10;16.60;99.90
11003;DHT22;5554;55.796;13.090;2022-09-14T15:18:40;16.60;99.90
11003;DHT22;5554;55.796;13.090;2022-09-14T15:21:24;16.50;99.90
11003;DHT22;5554;55.796;13.090;2022-09-14T15:23:57;16.40;99.90
11003;DHT22;5554;55.796;13.090;2022-09-14T15:26:28;16.40;99.90
11003;DHT22;5554;55.796;13.090;2022-09-14T15:29:00;16.40;99.90
11003;DHT22;5554;55.796;13.090;2022-09-14T15:31:28;16.30;99.90
11003;DHT22;5554;55.796;13.090;2022-09-14T15:33:56;16.30;99.90
11003;DHT22;5554;55.796;13.090;2022-09-14T15:39:41;16.30;99.90
11003;DHT22;5554;55.796;13.090;2022-09-14T15:42:28;16.20;1.00
11003;DHT22;5554;55.796;13.090;2022-09-14T15:44:55;16.30;1.00
11003;DHT22;5554;55.796;13.090;2022-09-14T15:47:31;16.30;1.00
11003;DHT22;5554;55.796;13.090;2022-09-14T15:49:58;16.40;1.00
11003;DHT22;5554;55.796;13.090;2022-09-14T15:52:25;16.40;1.00
11003;DHT22;5554;55.796;13.090;2022-09-14T15:54:54;16.40;1.00
11003;DHT22;5554;55.796;13.090;2022-09-14T15:57:20;16.50;99.90
11003;DHT22;5554;55.796;13.090;2022-09-14T15:59:48;16.50;99.90
11003;DHT22;5554;55.796;13.090;2022-09-14T16:02:15;16.40;99.90
11003;DHT22;5554;55.796;13.090;2022-09-14T16:04:54;16.30;99.90
11003;DHT22;5554;55.796;13.090;2022-09-14T16:07:33;16.30;99.90
11003;DHT22;5554;55.796;13.090;2022-09-14T16:10:23;16.20;99.90
11003;DHT22;5554;55.796;13.090;2022-09-14T16:13:05;16.20;1.00
11003;DHT22;5554;55.796;13.090;2022-09-14T16:22:02;16.20;99.90
11003;DHT22;5554;55.796;13.090;2022-09-14T16:24:30;16.20;1.00
11003;DHT22;5554;55.796;13.090;2022-09-14T16:26:59;16.30;1.00
11003;DHT22;5554;55.796;13.090;2022-09-14T16:29:32;16.30;1.00
11003;DHT22;5554;55.796;13.090;2022-09-14T16:31:59;16.30;1.00
11003;DHT22;5554;55.796;13.090;2022-09-14T16:34:27;16.20;1.00
11003;DHT22;5554;55.796;13.090;2022-09-14T16:36:57;16.20;1.00
11003;DHT22;5554;55.796;13.090;2022-09-14T16:39:26;16.10;1.00
11003;DHT22;5554;55.796;13.090;2022-09-14T16:41:54;16.10;1.00
11003;DHT22;5554;55.796;13.090;2022-09-14T16:44:36;16.00;1.00
11003;DHT22;5554;55.796;13.090;2022-09-14T16:47:23;16.00;1.00
11003;DHT22;5554;55.796;13.090;2022-09-14T16:49:51;16.00;1.00
11003;DHT22;5554;55.796;13.090;2022-09-14T16:55:12;15.70;56.10
11003;DHT22;5554;55.796;13.090;2022-09-14T16:57:39;15.70;1.00
11003;DHT22;5554;55.796;13.090;2022-09-14T17:00:10;15.60;1.00
11003;DHT22;5554;55.796;13.090;2022-09-14T17:02:37;15.50;1.00
11003;DHT22;5554;55.796;13.090;2022-09-14T17:05:04;15.50;1.00
11003;DHT22;5554;55.796;13.090;2022-09-14T17:07:31;15.50;46.70
11003;DHT22;5554;55.796;13.090;2022-09-14T17:09:59;15.40;99.90
11003;DHT22;5554;55.796;13.090;2022-09-14T17:12:26;15.40;1.00
11003;DHT22;5554;55.796;13.090;2022-09-14T17:14:53;15.30;99.90
11003;DHT22;5554;55.796;13.090;2022-09-14T17:17:21;15.20;1.00
11003;DHT22;5554;55.796;13.090;2022-09-14T17:19:48;15.10;77.70
11003;DHT22;5554;55.796;13.090;2022-09-14T17:22:15;15.00;1.00
11003;DHT22;5554;55.796;13.090;2022-09-14T17:24:48;14.90;99.90
11003;DHT22;5554;55.796;13.090;2022-09-14T17:27:21;14.90;99.90
11003;DHT22;5554;55.796;13.090;2022-09-14T17:29:48;14.90;1.00
11003;DHT22;5554;55.796;13.090;2022-09-14T17:32:17;14.80;99.90
11003;DHT22;5554;55.796;13.090;2022-09-14T17:34:46;14.80;99.90
11003;DHT22;5554;55.796;13.090;2022-09-14T17:37:16;14.80;99.90
11003;DHT22;5554;55.796;13.090;2022-09-14T17:40:05;14.70;99.90
11003;DHT22;5554;55.796;13.090;2022-09-14T17:42:35;14.60;99.90
11003;DHT22;5554;55.796;13.090;2022-09-14T17:45:03;14.60;99.90
11003;DHT22;5554;55.796;13.090;2022-09-14T17:47:33;14.60;99.90
11003;DHT22;5554;55.796;13.090;2022-09-14T17:50:15;14.50;99.90
11003;DHT22;5554;55.796;13.090;2022-09-14T17:52:43;14.50;99.90
11003;DHT22;5554;55.796;13.090;2022-09-14T17:55:10;14.50;99.90
11003;DHT22;5554;55.796;13.090;2022-09-14T18:04:14;14.40;99.90
11003;DHT22;5554;55.796;13.090;2022-09-14T18:17:56;14.30;99.90
11003;DHT22;5554;55.796;13.090;2022-09-14T18:24:47;14.20;99.90
11003;DHT22;5554;55.796;13.090;2022-09-14T18:38:46;14.60;99.90
11003;DHT22;5554;55.796;13.090;2022-09-14T18:52:20;14.60;99.90
11003;DHT22;5554;55.796;13.090;2022-09-14T19:05:18;14.60;99.90
11003;DHT22;5554;55.796;13.090;2022-09-14T19:11:38;14.70;99.90
11003;DHT22;5554;55.796;13.090;2022-09-14T19:21:04;14.70;99.90
11003;DHT22;5554;55.796;13.090;2022-09-14T19:30:51;14.80;99.90
11003;DHT22;5554;55.796;13.090;2022-09-14T19:40:17;14.80;99.90
11003;DHT22;5554;55.796;13.090;2022-09-14T19:42:45;14.80;99.90
11003;DHT22;5554;55.796;13.090;2022-09-14T19:45:12;14.80;99.90
11003;DHT22;5554;55.796;13.090;2022-09-14T19:47:41;14.80;99.90
11003;DHT22;5554;55.796;13.090;2022-09-14T19:50:14;14.80;99.90
11003;DHT22;5554;55.796;13.090;2022-09-14T19:52:40;14.80;99.90
11003;DHT22;5554;55.796;13.090;2022-09-14T19:55:41;14.80;99.90
11003;DHT22;5554;55.796;13.090;2022-09-14T19:58:08;14.70;99.90
11003;DHT22;5554;55.796;13.090;2022-09-14T20:06:32;14.70;99.90
11003;DHT22;5554;55.796;13.090;2022-09-14T20:09:00;14.60;99.90
11003;DHT22;5554;55.796;13.090;2022-09-14T20:14:48;14.60;99.90
11003;DHT22;5554;55.796;13.090;2022-09-14T20:17:24;14.50;99.90
11003;DHT22;5554;55.796;13.090;2022-09-14T20:20:23;14.40;99.90
11003;DHT22;5554;55.796;13.090;2022-09-14T20:26:10;14.30;99.90
11003;DHT22;5554;55.796;13.090;2022-09-14T20:28:51;14.30;99.90
11003;DHT22;5554;55.796;13.090;2022-09-14T20:31:24;14.20;99.90
11003;DHT22;5554;55.796;13.090;2022-09-14T20:33:54;14.20;99.90
11003;DHT22;5554;55.796;13.090;2022-09-14T20:36:42;14.20;99.90
11003;DHT22;5554;55.796;13.090;2022-09-14T20:39:33;14.20;99.90
11003;DHT22;5554;55.796;13.090;2022-09-14T20:42:04;14.20;99.90
11003;DHT22;5554;55.796;13.090;2022-09-14T20:44:48;14.20;99.90
11003;DHT22;5554;55.796;13.090;2022-09-14T20:47:31;14.20;99.90
11003;DHT22;5554;55.796;13.090;2022-09-14T20:52:58;14.10;99.90
11003;DHT22;5554;55.796;13.090;2022-09-14T20:55:31;14.00;99.90
11003;DHT22;5554;55.796;13.090;2022-09-14T20:58:21;14.00;99.90
11003;DHT22;5554;55.796;13.090;2022-09-14T21:01:10;14.00;99.90
11003;DHT22;5554;55.796;13.090;2022-09-14T21:04:04;14.00;99.90
11003;DHT22;5554;55.796;13.090;2022-09-14T21:06:35;14.00;99.90
11003;DHT22;5554;55.796;13.090;2022-09-14T21:09:27;13.90;99.90
11003;DHT22;5554;55.796;13.090;2022-09-14T21:15:22;13.90;99.90
11003;DHT22;5554;55.796;13.090;2022-09-14T21:27:56;14.00;99.90
11003;DHT22;5554;55.796;13.090;2022-09-14T21:30:32;14.00;99.90
11003;DHT22;5554;55.796;13.090;2022-09-14T21:32:59;14.00;99.90